Time;durP1;ratioP1;P1;durP2;ratioP2;P2;SDS_P1;SDS_P2;PMS_P1;PMS_P2;Temp;Humidity;BMP_temperature;BMP_pressure;BME280_temperature;BME280_humidity;BME280_pressure;Samples;Min_cycle;Max_cycle;Signal;HPM_P1;HPM_P2
2021/07/07 00:00:55;;;;;;;5.07;0.98;;;17.60;99.90;;;;;;5070911;28;20032;-42
2021/07/07 00:03:20;;;;;;;11.18;5.05;;;17.60;99.90;;;;;;5070867;28;20513;-41
2021/07/07 00:05:46;;;;;;;12.82;5.57;;;17.60;99.90;;;;;;5070738;28;20051;-46
2021/07/07 00:08:11;;;;;;;2.35;1.50;;;17.50;99.90;;;;;;5070487;28;20029;-42
2021/07/07 00:10:37;;;;;;;4.38;1.00;;;17.50;99.90;;;;;;5070762;28;20021;-41
2021/07/07 00:13:04;;;;;;;1.83;1.02;;;17.50;99.90;;;;;;5070747;28;20032;-46
2021/07/07 00:15:34;;;;;;;5.57;1.30;;;17.50;99.90;;;;;;5070371;28;20107;-47
2021/07/07 00:18:02;;;;;;;2.25;1.02;;;17.50;99.90;;;;;;5070689;28;20506;-42
2021/07/07 00:20:34;;;;;;;4.38;1.20;;;17.50;99.90;;;;;;5070700;28;20040;-44
2021/07/07 00:23:00;;;;;;;1.30;1.15;;;17.50;99.90;;;;;;5070247;28;20043;-44
2021/07/07 00:25:26;;;;;;;1.17;1.08;;;17.40;99.90;;;;;;5070361;28;20027;-46
2021/07/07 00:27:51;;;;;;;4.97;0.80;;;17.40;99.90;;;;;;5070550;28;20020;-43
2021/07/07 00:30:17;;;;;;;2.28;1.10;;;17.30;99.90;;;;;;5070560;28;20025;-43
2021/07/07 00:32:43;;;;;;;3.25;1.13;;;17.30;99.90;;;;;;5070584;28;20403;-42
2021/07/07 00:35:09;;;;;;;3.00;1.13;;;17.30;99.90;;;;;;5069934;28;20036;-43
2021/07/07 00:37:35;;;;;;;2.35;1.05;;;17.30;99.90;;;;;;5070274;28;20032;-41
2021/07/07 00:40:00;;;;;;;3.67;1.40;;;17.30;99.90;;;;;;5070360;28;20374;-41
2021/07/07 00:42:26;;;;;;;4.68;1.33;;;17.20;99.90;;;;;;5070328;28;20400;-41
2021/07/07 00:44:51;;;;;;;4.32;1.45;;;17.30;99.90;;;;;;5070200;28;20149;-42
2021/07/07 00:47:17;;;;;;;3.03;1.20;;;17.30;99.90;;;;;;5070367;28;20087;-44
2021/07/07 00:49:43;;;;;;;1.23;1.10;;;17.20;99.90;;;;;;5069926;28;20055;-46
2021/07/07 00:52:10;;;;;;;5.05;1.40;;;17.20;99.90;;;;;;5068965;28;20401;-41
2021/07/07 00:54:36;;;;;;;2.80;1.17;;;17.10;99.90;;;;;;5070727;22;20053;-56
2021/07/07 00:57:02;;;;;;;3.03;1.40;;;17.10;99.90;;;;;;5050205;28;20074;-54
2021/07/07 00:59:29;;;;;;;2.50;1.10;;;17.20;99.90;;;;;;5050259;28;20033;-51
2021/07/07 01:01:55;;;;;;;3.88;1.30;;;17.10;99.90;;;;;;5050067;28;20060;-56
2021/07/07 01:04:21;;;;;;;3.17;1.10;;;17.10;99.90;;;;;;5049364;28;20025;-55
2021/07/07 01:06:47;;;;;;;3.97;1.77;;;17.00;99.90;;;;;;5050077;28;20025;-53
2021/07/07 01:09:12;;;;;;;7.30;1.38;;;17.10;99.90;;;;;;5050398;28;20048;-57
2021/07/07 01:11:38;;;;;;;5.32;1.20;;;17.10;99.90;;;;;;5050201;28;20037;-52
2021/07/07 01:14:04;;;;;;;3.30;1.13;;;17.10;99.90;;;;;;5049452;28;20029;-52
2021/07/07 01:16:29;;;;;;;3.05;1.40;;;17.10;99.90;;;;;;5050280;28;20084;-54
2021/07/07 01:18:56;;;;;;;3.40;1.40;;;17.00;99.90;;;;;;5052588;28;20730;-55
2021/07/07 01:21:22;;;;;;;8.07;1.75;;;17.10;99.90;;;;;;5053873;28;20082;-56
2021/07/07 01:23:51;;;;;;;5.32;1.52;;;17.10;99.90;;;;;;5053166;28;20489;-54
2021/07/07 01:26:17;;;;;;;3.97;1.45;;;17.00;99.90;;;;;;5053951;28;20087;-55
2021/07/07 01:28:43;;;;;;;1.95;1.58;;;17.10;99.90;;;;;;5053848;28;20025;-54
2021/07/07 01:31:08;;;;;;;2.78;1.23;;;17.10;99.90;;;;;;5053920;28;20024;-54
2021/07/07 01:33:34;;;;;;;3.05;1.40;;;17.00;99.90;;;;;;5052949;28;20103;-51
2021/07/07 01:36:00;;;;;;;3.05;1.70;;;17.00;99.90;;;;;;5053661;28;20115;-52
2021/07/07 01:38:26;;;;;;;6.65;1.45;;;17.00;99.90;;;;;;5053648;28;20132;-56
2021/07/07 01:40:56;;;;;;;4.85;1.40;;;17.00;99.90;;;;;;5053615;28;20021;-55
2021/07/07 01:43:21;;;;;;;4.55;1.77;;;17.00;99.90;;;;;;5053066;28;20028;-53
2021/07/07 01:45:47;;;;;;;3.03;1.60;;;17.00;99.90;;;;;;5053815;28;20025;-54
2021/07/07 01:48:12;;;;;;;11.80;2.42;;;16.90;99.90;;;;;;5053835;28;20507;-53
2021/07/07 01:50:38;;;;;;;2.78;1.45;;;16.90;99.90;;;;;;5053596;28;20025;-55
2021/07/07 01:53:04;;;;;;;6.03;1.70;;;16.80;99.90;;;;;;5053177;28;20044;-52
2021/07/07 01:55:29;;;;;;;5.65;1.40;;;16.80;99.90;;;;;;5052497;28;20025;-56
2021/07/07 01:57:55;;;;;;;2.40;1.42;;;16.70;99.90;;;;;;5053491;28;20052;-56
2021/07/07 02:00:23;;;;;;;5.45;1.45;;;16.70;99.90;;;;;;5053461;28;20029;-55
2021/07/07 02:02:50;;;;;;;2.38;1.33;;;16.70;99.90;;;;;;5053151;28;20551;-54
2021/07/07 02:05:17;;;;;;;4.72;1.30;;;16.70;99.90;;;;;;5052524;28;20032;-54
2021/07/07 02:07:43;;;;;;;5.38;1.58;;;16.60;99.90;;;;;;5035448;28;20051;-55
2021/07/07 02:10:11;;;;;;;6.95;1.45;;;16.60;99.90;;;;;;5053102;28;20074;-57
2021/07/07 02:12:37;;;;;;;9.88;1.90;;;16.60;99.90;;;;;;5053088;28;20367;-54
2021/07/07 02:15:25;;;;;;;9.13;1.83;;;16.50;99.90;;;;;;5052257;28;20394;-53
2021/07/07 02:17:53;;;;;;;11.25;6.07;;;16.50;99.90;;;;;;5053173;28;20053;-54
2021/07/07 02:20:19;;;;;;;25.90;14.65;;;16.50;99.90;;;;;;5053171;28;20505;-56
2021/07/07 02:22:46;;;;;;;9.88;3.97;;;16.40;99.90;;;;;;5052849;28;20033;-55
2021/07/07 02:25:14;;;;;;;5.97;1.30;;;16.40;99.90;;;;;;5052172;28;20096;-56
2021/07/07 02:27:40;;;;;;;8.25;1.50;;;16.40;99.90;;;;;;5034805;28;20032;-56
2021/07/07 02:30:10;;;;;;;4.00;1.27;;;16.50;99.90;;;;;;5052707;28;20025;-56
2021/07/07 02:32:36;;;;;;;3.70;1.15;;;16.50;99.90;;;;;;5052646;28;20037;-53
2021/07/07 02:35:04;;;;;;;3.22;1.02;;;16.50;99.90;;;;;;5051974;28;20040;-56
2021/07/07 02:37:30;;;;;;;4.30;1.17;;;16.50;99.90;;;;;;5052832;28;20139;-53
2021/07/07 02:39:56;;;;;;;1.55;1.00;;;16.50;99.90;;;;;;5053095;28;20029;-54
2021/07/07 02:42:21;;;;;;;1.65;1.20;;;16.50;99.90;;;;;;5035163;28;20033;-56
2021/07/07 02:44:47;;;;;;;4.07;1.50;;;16.40;99.90;;;;;;5052057;28;20064;-53
2021/07/07 02:47:12;;;;;;;6.63;1.23;;;16.40;99.90;;;;;;5035057;28;20071;-54
2021/07/07 02:49:38;;;;;;;3.80;1.20;;;16.40;99.90;;;;;;5034944;28;20024;-54
2021/07/07 02:52:04;;;;;;;9.45;1.05;;;16.30;99.90;;;;;;5052679;28;20079;-54
2021/07/07 02:54:30;;;;;;;4.70;1.30;;;16.30;99.90;;;;;;5051676;28;20056;-54
2021/07/07 02:56:55;;;;;;;4.57;1.42;;;16.30;99.90;;;;;;5052204;28;20033;-54
2021/07/07 02:59:20;;;;;;;6.75;1.52;;;16.30;99.90;;;;;;5052360;28;20060;-54
2021/07/07 03:01:46;;;;;;;4.28;1.67;;;16.40;99.90;;;;;;5052168;28;20028;-55
2021/07/07 03:04:11;;;;;;;13.05;1.55;;;16.30;99.90;;;;;;5033479;28;20021;-52
2021/07/07 03:06:37;;;;;;;5.18;1.02;;;16.30;99.90;;;;;;5052128;28;20096;-55
2021/07/07 03:09:03;;;;;;;2.17;1.02;;;16.20;99.90;;;;;;5052317;28;20029;-52
2021/07/07 03:11:29;;;;;;;10.05;1.63;;;16.20;99.90;;;;;;5052688;28;20021;-52
2021/07/07 03:13:55;;;;;;;5.65;1.65;;;16.20;99.90;;;;;;5051456;28;20036;-55
2021/07/07 03:16:20;;;;;;;9.88;1.50;;;16.20;99.90;;;;;;5052063;28;20036;-52
2021/07/07 03:18:46;;;;;;;4.97;1.30;;;16.20;99.90;;;;;;5051848;28;20029;-54
2021/07/07 03:21:11;;;;;;;2.35;1.15;;;16.20;99.90;;;;;;5051867;28;20120;-56
2021/07/07 03:23:37;;;;;;;3.58;1.38;;;16.30;99.90;;;;;;5051152;28;20017;-57
2021/07/07 03:26:03;;;;;;;4.13;1.23;;;16.30;99.90;;;;;;5051868;28;20025;-57
2021/07/07 03:28:28;;;;;;;2.75;1.08;;;16.30;99.90;;;;;;5051774;28;20026;-53
2021/07/07 03:30:54;;;;;;;1.63;1.15;;;16.30;99.90;;;;;;5051706;28;20024;-56
2021/07/07 03:33:20;;;;;;;3.70;1.30;;;16.30;99.90;;;;;;5051341;28;20074;-56
2021/07/07 03:35:46;;;;;;;2.70;1.27;;;16.20;99.90;;;;;;5051379;28;20599;-53
2021/07/07 03:38:12;;;;;;;5.25;1.25;;;16.20;99.90;;;;;;5051615;28;20059;-55
2021/07/07 03:40:38;;;;;;;4.30;1.42;;;16.10;99.90;;;;;;5051076;28;20025;-51
2021/07/07 03:43:04;;;;;;;6.15;1.52;;;16.20;99.90;;;;;;5051389;28;20123;-54
2021/07/07 03:45:29;;;;;;;5.70;1.23;;;16.20;99.90;;;;;;5052598;28;20632;-56
2021/07/07 03:47:55;;;;;;;2.20;1.45;;;16.20;99.90;;;;;;5053652;28;20021;-52
2021/07/07 03:50:22;;;;;;;2.95;1.15;;;16.10;99.90;;;;;;5051529;28;20103;-54
2021/07/07 03:52:48;;;;;;;3.75;1.20;;;16.10;99.90;;;;;;5051289;28;20035;-55
2021/07/07 03:55:16;;;;;;;8.50;1.10;;;16.20;99.90;;;;;;5050488;28;20083;-55
2021/07/07 03:57:42;;;;;;;1.73;1.10;;;16.20;99.90;;;;;;5051340;28;20060;-52
2021/07/07 04:00:11;;;;;;;5.20;1.40;;;16.20;99.90;;;;;;5051192;28;20544;-57
2021/07/07 04:02:37;;;;;;;6.25;1.42;;;16.20;99.90;;;;;;5050799;28;20025;-54
2021/07/07 04:05:04;;;;;;;2.58;1.15;;;16.20;99.90;;;;;;5050134;28;20028;-55
2021/07/07 04:07:29;;;;;;;1.25;1.10;;;16.20;99.90;;;;;;5050919;28;20071;-55
2021/07/07 04:09:55;;;;;;;5.57;1.50;;;16.20;99.90;;;;;;5050946;28;20037;-53
2021/07/07 04:12:20;;;;;;;2.35;1.35;;;16.20;99.90;;;;;;5051059;28;20473;-51
2021/07/07 04:14:46;;;;;;;4.93;1.35;;;16.20;99.90;;;;;;5050146;28;20031;-53
2021/07/07 04:17:11;;;;;;;2.80;1.23;;;16.20;99.90;;;;;;5050850;28;20025;-55
2021/07/07 04:19:37;;;;;;;8.05;1.50;;;16.20;99.90;;;;;;5050735;28;20075;-56
2021/07/07 04:22:03;;;;;;;2.97;1.25;;;16.20;99.90;;;;;;5050628;28;20067;-54
2021/07/07 04:24:28;;;;;;;2.85;1.00;;;16.20;99.90;;;;;;5049990;28;20021;-52
2021/07/07 04:26:54;;;;;;;2.60;1.13;;;16.20;99.90;;;;;;5050581;28;20102;-54
2021/07/07 04:29:19;;;;;;;5.05;1.50;;;16.20;99.90;;;;;;5050705;28;20071;-54
2021/07/07 04:31:45;;;;;;;5.45;1.05;;;16.20;99.90;;;;;;5050844;28;20402;-52
2021/07/07 04:34:11;;;;;;;2.83;0.98;;;16.20;99.90;;;;;;5049971;28;20050;-54
2021/07/07 04:36:37;;;;;;;4.22;0.93;;;16.20;99.90;;;;;;5050487;28;20426;-57
2021/07/07 04:39:07;;;;;;;1.17;1.08;;;16.20;99.90;;;;;;5050640;28;20025;-55
2021/07/07 04:41:33;;;;;;;2.40;1.00;;;16.20;99.90;;;;;;5050465;28;20025;-54
2021/07/07 04:43:59;;;;;;;4.80;1.63;;;16.20;99.90;;;;;;5049753;28;20108;-52
2021/07/07 04:46:25;;;;;;;5.43;1.63;;;16.20;99.90;;;;;;5050500;28;20100;-53
2021/07/07 04:48:50;;;;;;;2.53;1.13;;;16.20;99.90;;;;;;5050405;28;20048;-54
2021/07/07 04:51:16;;;;;;;5.85;1.65;;;16.20;99.90;;;;;;5050356;28;20017;-54
2021/07/07 04:53:42;;;;;;;9.35;1.55;;;16.20;99.90;;;;;;5050769;28;20102;-50
2021/07/07 04:56:08;;;;;;;3.92;1.40;;;16.20;99.90;;;;;;5063305;28;20096;-51
2021/07/07 04:58:38;;;;;;;7.38;1.40;;;16.30;99.90;;;;;;5054467;28;20540;-50
2021/07/07 05:01:03;;;;;;;6.40;1.42;;;16.30;99.90;;;;;;5055096;28;20025;-49
2021/07/07 05:03:29;;;;;;;2.83;1.25;;;16.30;99.90;;;;;;5053527;28;20032;-52
2021/07/07 05:05:55;;;;;;;4.28;0.90;;;16.30;99.90;;;;;;5054255;28;20094;-50
2021/07/07 05:08:21;;;;;;;2.05;0.85;;;16.30;99.90;;;;;;5054488;28;20036;-50
2021/07/07 05:10:46;;;;;;;3.50;1.70;;;16.30;99.90;;;;;;5054171;28;20025;-47
2021/07/07 05:13:13;;;;;;;1.88;1.23;;;16.30;99.90;;;;;;5045602;28;20132;-47
2021/07/07 05:15:38;;;;;;;7.85;1.02;;;16.30;99.90;;;;;;5058255;28;20033;-48
2021/07/07 05:18:06;;;;;;;7.25;1.20;;;16.30;99.90;;;;;;5057899;28;20029;-52
2021/07/07 05:20:32;;;;;;;3.95;1.30;;;16.30;99.90;;;;;;5040578;28;20037;-53
2021/07/07 05:22:58;;;;;;;4.90;1.45;;;16.30;99.90;;;;;;5052589;28;20035;-52
2021/07/07 05:25:23;;;;;;;5.85;1.42;;;16.30;99.90;;;;;;5053657;28;20025;-53
2021/07/07 05:27:49;;;;;;;6.45;1.83;;;16.40;99.90;;;;;;5054318;28;20116;-52
2021/07/07 05:30:16;;;;;;;1.88;1.00;;;16.40;99.90;;;;;;5053158;28;20052;-51
2021/07/07 05:32:41;;;;;;;3.40;1.10;;;16.30;99.90;;;;;;5053824;28;20070;-51
2021/07/07 05:35:08;;;;;;;7.90;1.23;;;16.40;99.90;;;;;;5052967;28;20104;-51
2021/07/07 05:37:34;;;;;;;2.13;1.83;;;16.40;99.90;;;;;;5054252;28;20565;-53
2021/07/07 05:40:00;;;;;;;2.30;1.35;;;16.40;99.90;;;;;;5053865;28;20143;-57
2021/07/07 05:42:26;;;;;;;3.90;1.80;;;16.50;99.90;;;;;;5054026;28;20502;-55
2021/07/07 05:44:52;;;;;;;8.77;1.38;;;16.50;99.90;;;;;;5053033;28;20025;-54
2021/07/07 05:47:19;;;;;;;5.13;1.38;;;16.50;99.90;;;;;;5053780;28;20028;-53
2021/07/07 05:49:44;;;;;;;3.65;1.85;;;16.60;99.90;;;;;;5053592;28;20029;-51
2021/07/07 05:52:10;;;;;;;8.63;1.38;;;16.60;99.90;;;;;;5053722;28;20079;-48
2021/07/07 05:54:36;;;;;;;6.35;1.45;;;16.70;99.90;;;;;;5053517;28;20120;-48
2021/07/07 05:57:03;;;;;;;2.15;1.20;;;16.70;99.90;;;;;;5036077;28;20025;-50
2021/07/07 05:59:28;;;;;;;3.08;1.55;;;16.80;99.90;;;;;;5053736;28;20450;-52
2021/07/07 06:01:54;;;;;;;2.20;1.38;;;16.90;99.90;;;;;;5056358;28;20060;-51
2021/07/07 06:04:19;;;;;;;2.55;1.70;;;17.00;99.90;;;;;;5067653;28;20082;-51
2021/07/07 06:06:45;;;;;;;3.83;1.27;;;17.00;99.90;;;;;;5059141;28;20029;-50
2021/07/07 06:09:10;;;;;;;3.05;1.70;;;17.00;99.90;;;;;;5062695;28;20020;-51
2021/07/07 06:11:36;;;;;;;6.53;1.80;;;17.10;99.90;;;;;;5056371;28;20052;-48
2021/07/07 06:14:02;;;;;;;4.43;1.67;;;17.10;99.90;;;;;;5048786;28;20025;-51
2021/07/07 06:16:28;;;;;;;2.45;2.10;;;17.20;99.90;;;;;;5059750;28;20028;-47
2021/07/07 06:18:53;;;;;;;2.65;2.20;;;17.20;99.90;;;;;;5059435;28;20028;-50
2021/07/07 06:21:19;;;;;;;2.67;2.00;;;17.10;99.90;;;;;;5063808;28;20025;-49
2021/07/07 06:23:44;;;;;;;3.72;1.67;;;17.20;99.90;;;;;;5051961;28;20025;-45
2021/07/07 06:26:10;;;;;;;4.18;1.60;;;17.20;99.90;;;;;;5053549;28;20052;-49
2021/07/07 06:28:36;;;;;;;4.00;1.55;;;17.20;99.90;;;;;;5072661;28;20399;-46
2021/07/07 06:31:02;;;;;;;13.70;2.15;;;17.30;99.90;;;;;;5072570;28;20024;-45
2021/07/07 06:33:28;;;;;;;4.38;1.83;;;17.30;99.90;;;;;;5066242;28;20486;-46
2021/07/07 06:35:53;;;;;;;2.78;1.60;;;17.40;99.90;;;;;;5063851;28;20037;-49
2021/07/07 06:38:19;;;;;;;4.85;1.58;;;17.40;99.90;;;;;;5061854;28;20033;-46
2021/07/07 06:40:44;;;;;;;5.13;1.88;;;17.50;99.90;;;;;;5059696;28;20040;-46
2021/07/07 06:43:10;;;;;;;2.88;1.60;;;17.60;99.90;;;;;;5066945;28;20032;-46
2021/07/07 06:45:38;;;;;;;5.00;1.58;;;17.60;99.90;;;;;;5072102;28;20496;-46
2021/07/07 06:48:09;;;;;;;2.70;1.65;;;17.70;99.90;;;;;;5070454;28;20478;-46
2021/07/07 06:50:35;;;;;;;2.80;1.63;;;17.70;99.90;;;;;;5070930;28;20025;-46
2021/07/07 06:53:01;;;;;;;5.88;1.85;;;17.70;99.90;;;;;;5067623;28;20025;-49
2021/07/07 06:55:27;;;;;;;3.92;2.97;;;17.80;99.90;;;;;;5068472;22;20076;-45
2021/07/07 06:57:54;;;;;;;2.35;1.52;;;17.80;99.90;;;;;;5052270;28;20040;-47
2021/07/07 07:00:21;;;;;;;4.95;1.80;;;17.80;99.90;;;;;;5052008;28;20029;-49
2021/07/07 07:02:48;;;;;;;9.73;1.83;;;17.80;99.90;;;;;;5052897;28;20041;-47
2021/07/07 07:05:15;;;;;;;12.15;2.22;;;17.80;99.90;;;;;;5053602;28;20132;-41
2021/07/07 07:07:42;;;;;;;5.47;1.45;;;17.80;99.90;;;;;;5068834;28;20055;-42
2021/07/07 07:10:09;;;;;;;3.00;1.52;;;17.80;99.90;;;;;;5052543;28;20106;-44
2021/07/07 07:12:37;;;;;;;5.72;2.63;;;17.80;99.90;;;;;;5056476;28;20016;-41
2021/07/07 07:15:06;;;;;;;3.25;1.38;;;17.90;99.90;;;;;;5068884;28;20028;-42
2021/07/07 07:17:33;;;;;;;4.80;1.48;;;18.00;99.90;;;;;;5071090;28;20607;-41
2021/07/07 07:19:59;;;;;;;9.77;1.80;;;18.10;99.90;;;;;;5065674;28;20052;-42
2021/07/07 07:22:25;;;;;;;3.95;1.50;;;18.30;99.90;;;;;;5060687;28;20066;-44
2021/07/07 07:24:51;;;;;;;9.05;2.03;;;18.40;99.90;;;;;;5051525;28;20146;-40
2021/07/07 07:27:17;;;;;;;4.57;2.50;;;18.50;99.90;;;;;;5055152;28;20017;-41
2021/07/07 07:29:43;;;;;;;5.50;1.83;;;18.50;99.90;;;;;;5051657;28;20040;-40
2021/07/07 07:32:09;;;;;;;9.10;3.40;;;18.50;99.90;;;;;;5052944;28;20032;-41
2021/07/07 07:34:35;;;;;;;4.90;2.00;;;18.50;99.90;;;;;;5063110;28;20033;-43
2021/07/07 07:37:02;;;;;;;4.22;1.58;;;18.60;99.90;;;;;;5060283;28;20090;-42
2021/07/07 07:39:38;;;;;;;3.67;1.17;;;18.70;99.90;;;;;;5050594;28;20108;-40
2021/07/07 07:42:04;;;;;;;5.13;1.30;;;18.90;99.90;;;;;;5050711;28;20040;-43
2021/07/07 07:44:30;;;;;;;6.30;1.60;;;19.10;99.90;;;;;;5050252;28;20025;-36
2021/07/07 07:46:58;;;;;;;2.53;1.48;;;19.40;99.90;;;;;;5051131;28;20104;-41
2021/07/07 07:49:24;;;;;;;4.30;1.77;;;19.70;99.90;;;;;;5051232;28;20079;-43
2021/07/07 07:51:52;;;;;;;11.65;1.90;;;20.30;99.90;;;;;;5051079;28;20421;-41
2021/07/07 07:54:18;;;;;;;5.10;1.35;;;21.20;99.90;;;;;;5050117;28;20045;-42
2021/07/07 07:56:44;;;;;;;3.15;1.30;;;22.40;99.90;;;;;;5051585;28;20452;-45
2021/07/07 07:59:09;;;;;;;10.52;1.75;;;23.90;98.70;;;;;;5051032;28;20036;-42
2021/07/07 08:01:35;;;;;;;3.20;1.40;;;25.00;97.00;;;;;;5050995;28;20029;-45
2021/07/07 08:04:02;;;;;;;6.35;1.90;;;26.10;93.60;;;;;;5050178;28;20048;-45
2021/07/07 08:06:28;;;;;;;2.17;1.13;;;26.80;91.90;;;;;;5050976;28;20048;-47
2021/07/07 08:08:54;;;;;;;5.13;2.72;;;27.40;90.30;;;;;;5050788;28;20055;-42
2021/07/07 08:11:20;;;;;;;3.08;0.95;;;27.90;88.40;;;;;;5050865;28;20082;-48
2021/07/07 08:13:46;;;;;;;2.83;1.20;;;28.00;86.40;;;;;;5049832;28;20025;-43
2021/07/07 08:16:12;;;;;;;7.30;1.20;;;28.10;87.70;;;;;;5050798;28;20049;-43
2021/07/07 08:18:37;;;;;;;2.35;1.10;;;28.40;85.70;;;;;;5050841;28;20025;-45
2021/07/07 08:21:03;;;;;;;1.40;1.00;;;28.40;84.80;;;;;;5050672;28;20096;-45
2021/07/07 08:23:29;;;;;;;4.28;1.00;;;28.20;84.40;;;;;;5049695;28;20448;-45
2021/07/07 08:25:54;;;;;;;3.17;1.10;;;28.20;84.70;;;;;;5050727;28;20067;-45
2021/07/07 08:28:20;;;;;;;5.85;1.25;;;28.10;85.60;;;;;;5050429;28;20064;-44
2021/07/07 08:30:46;;;;;;;3.50;1.45;;;27.70;86.30;;;;;;5050069;28;20455;-47
2021/07/07 08:33:12;;;;;;;3.13;0.90;;;27.40;85.40;;;;;;5050572;28;20086;-48
2021/07/07 08:35:38;;;;;;;9.48;1.23;;;26.70;87.30;;;;;;5049935;28;20505;-49
2021/07/07 08:38:04;;;;;;;2.03;0.88;;;26.00;89.80;;;;;;5050549;28;20436;-47
2021/07/07 08:40:30;;;;;;;4.80;1.20;;;25.70;91.10;;;;;;5050233;28;20403;-45
2021/07/07 08:42:56;;;;;;;6.15;1.40;;;25.30;90.60;;;;;;5050063;28;20028;-45
2021/07/07 08:45:22;;;;;;;6.57;1.38;;;24.90;91.00;;;;;;5049541;28;20033;-46
2021/07/07 08:47:49;;;;;;;3.22;1.50;;;24.50;92.00;;;;;;5050296;28;20032;-45
2021/07/07 08:50:22;;;;;;;10.00;1.60;;;24.30;92.20;;;;;;5049999;28;20025;-47
2021/07/07 08:52:48;;;;;;;5.68;1.85;;;24.10;93.50;;;;;;5050437;28;20676;-46
2021/07/07 08:55:16;;;;;;;4.85;1.42;;;23.90;93.70;;;;;;5050034;28;20040;-44
2021/07/07 08:57:42;;;;;;;5.07;1.52;;;23.90;94.50;;;;;;5050825;28;20500;-43
2021/07/07 09:00:15;;;;;;;3.88;1.25;;;23.80;94.80;;;;;;5050617;28;20035;-42
2021/07/07 09:02:49;;;;;;;6.47;1.60;;;23.70;94.20;;;;;;5050889;28;20036;-43
2021/07/07 09:05:15;;;;;;;4.55;1.17;;;23.60;93.90;;;;;;5049992;28;20021;-45
2021/07/07 09:07:41;;;;;;;7.00;1.40;;;23.70;93.80;;;;;;5050252;28;20478;-44
2021/07/07 09:10:06;;;;;;;3.65;1.30;;;23.70;93.50;;;;;;5050194;28;20040;-47
2021/07/07 09:12:35;;;;;;;4.05;1.20;;;23.60;93.60;;;;;;5050253;28;20028;-44
2021/07/07 09:15:06;;;;;;;7.40;1.42;;;23.50;93.90;;;;;;5050062;28;20021;-43
2021/07/07 09:17:48;;;;;;;2.67;1.17;;;23.50;93.60;;;;;;5050006;28;20079;-42
2021/07/07 09:20:22;;;;;;;3.42;1.08;;;23.40;93.90;;;;;;5050540;28;20035;-46
2021/07/07 09:22:49;;;;;;;4.55;1.20;;;23.40;93.60;;;;;;5049723;28;20078;-42
2021/07/07 09:25:18;;;;;;;9.27;1.30;;;23.30;93.90;;;;;;5049847;28;20475;-43
2021/07/07 09:27:44;;;;;;;3.85;2.00;;;23.20;93.50;;;;;;5051010;28;20021;-46
2021/07/07 09:30:12;;;;;;;4.45;1.45;;;23.10;93.60;;;;;;5050951;28;20479;-42
2021/07/07 09:32:49;;;;;;;2.42;1.05;;;23.20;94.50;;;;;;5050756;28;20029;-45
2021/07/07 09:35:18;;;;;;;5.72;1.60;;;23.30;94.50;;;;;;5050955;28;20075;-43
2021/07/07 09:37:56;;;;;;;8.95;1.55;;;23.40;95.00;;;;;;5050976;28;20055;-43
2021/07/07 09:40:23;;;;;;;7.40;1.70;;;23.50;94.40;;;;;;5054240;28;20052;-45
2021/07/07 09:42:49;;;;;;;2.17;1.13;;;23.50;93.90;;;;;;5053953;28;20025;-45
2021/07/07 09:45:18;;;;;;;3.70;1.30;;;23.50;94.20;;;;;;5053287;28;20028;-44
2021/07/07 09:47:44;;;;;;;35.50;22.10;;;23.50;94.10;;;;;;5054010;28;20017;-42
2021/07/07 09:50:11;;;;;;;26.92;17.50;;;23.60;94.10;;;;;;5053942;28;20066;-41
2021/07/07 09:52:37;;;;;;;4.35;1.70;;;23.60;94.40;;;;;;5053501;28;20021;-43
2021/07/07 09:55:08;;;;;;;5.70;1.35;;;23.50;94.00;;;;;;5053321;28;20064;-43
2021/07/07 09:57:34;;;;;;;7.22;1.83;;;23.50;95.00;;;;;;5053098;28;20482;-48
2021/07/07 10:00:00;;;;;;;5.03;1.55;;;23.60;94.20;;;;;;5053218;28;20548;-43
2021/07/07 10:02:26;;;;;;;4.30;1.65;;;23.60;93.90;;;;;;5053273;28;20033;-46
2021/07/07 10:04:52;;;;;;;8.75;1.92;;;23.50;93.70;;;;;;5053393;28;20032;-42
2021/07/07 10:07:18;;;;;;;5.80;1.38;;;23.50;94.40;;;;;;5053062;28;20025;-43
2021/07/07 10:09:47;;;;;;;6.20;1.48;;;23.40;94.70;;;;;;5053108;28;20021;-45
2021/07/07 10:12:13;;;;;;;6.47;2.22;;;23.40;95.00;;;;;;5053028;28;20551;-43
2021/07/07 10:14:39;;;;;;;8.57;2.10;;;23.40;94.70;;;;;;5053343;28;20398;-50
2021/07/07 10:17:05;;;;;;;6.90;2.38;;;23.20;95.40;;;;;;5053931;28;20100;-47
2021/07/07 10:19:31;;;;;;;6.80;1.92;;;23.20;96.10;;;;;;5053544;28;20128;-43
2021/07/07 10:21:58;;;;;;;6.07;1.70;;;23.20;95.70;;;;;;5053315;28;20021;-44
2021/07/07 10:24:30;;;;;;;3.22;1.50;;;23.40;94.70;;;;;;5053123;28;20075;-42
2021/07/07 10:27:02;;;;;;;4.38;1.63;;;23.50;94.80;;;;;;5053164;28;20045;-44
2021/07/07 10:29:28;;;;;;;8.10;1.63;;;23.50;94.80;;;;;;5053104;28;20025;-41
2021/07/07 10:31:57;;;;;;;5.82;1.45;;;23.50;94.30;;;;;;5053874;28;20048;-42
2021/07/07 10:34:26;;;;;;;10.73;1.73;;;23.50;93.40;;;;;;5052678;28;20461;-44
2021/07/07 10:36:53;;;;;;;7.68;1.70;;;23.40;93.70;;;;;;5053115;28;20037;-43
2021/07/07 10:39:19;;;;;;;6.65;1.77;;;23.40;93.20;;;;;;5053109;28;20029;-46
2021/07/07 10:41:51;;;;;;;4.40;1.30;;;23.40;94.40;;;;;;5052508;28;20032;-44
2021/07/07 10:44:22;;;;;;;2.88;1.50;;;23.40;94.60;;;;;;5052400;28;20395;-42
2021/07/07 10:47:00;;;;;;;7.10;2.10;;;23.50;95.00;;;;;;5052844;28;20449;-44
2021/07/07 10:49:28;;;;;;;6.60;1.95;;;23.50;94.90;;;;;;5052263;28;20027;-44
2021/07/07 10:51:56;;;;;;;5.07;1.50;;;23.60;95.60;;;;;;5051351;28;20024;-42
2021/07/07 10:54:27;;;;;;;6.63;1.83;;;23.70;92.50;;;;;;5051914;28;20024;-48
2021/07/07 10:56:54;;;;;;;6.03;2.00;;;23.70;92.50;;;;;;5052668;28;20033;-44
2021/07/07 10:59:40;;;;;;;4.13;1.60;;;23.70;93.50;;;;;;5052245;28;20029;-44
2021/07/07 11:02:20;;;;;;;4.95;1.50;;;23.70;93.00;;;;;;5051713;28;20044;-43
2021/07/07 11:04:48;;;;;;;5.32;2.13;;;23.80;93.80;;;;;;5051927;28;20548;-43
2021/07/07 11:07:33;;;;;;;3.53;2.00;;;23.80;93.20;;;;;;5052549;28;20113;-46
2021/07/07 11:10:19;;;;;;;5.40;1.70;;;23.80;93.60;;;;;;5052218;28;20029;-44
2021/07/07 11:12:44;;;;;;;4.55;1.77;;;23.60;94.40;;;;;;5051522;28;20071;-41
2021/07/07 11:15:16;;;;;;;8.40;2.03;;;23.40;94.40;;;;;;5051632;28;20056;-45
2021/07/07 11:17:48;;;;;;;6.72;2.13;;;23.40;94.80;;;;;;5051865;28;20539;-43
2021/07/07 11:20:17;;;;;;;5.38;1.75;;;23.30;94.30;;;;;;5051961;28;20039;-47
2021/07/07 11:22:45;;;;;;;8.52;2.42;;;23.40;94.80;;;;;;5051837;28;20067;-42
2021/07/07 11:25:12;;;;;;;5.35;1.80;;;23.30;94.30;;;;;;5052103;28;20021;-42
2021/07/07 11:27:39;;;;;;;4.68;1.80;;;23.20;94.30;;;;;;5052106;28;20040;-45
2021/07/07 11:30:10;;;;;;;4.63;1.30;;;23.10;94.40;;;;;;5052106;28;20022;-43
2021/07/07 11:32:39;;;;;;;3.25;1.73;;;23.20;94.10;;;;;;5053160;28;20025;-44
2021/07/07 11:35:14;;;;;;;6.05;1.50;;;23.20;95.30;;;;;;5052507;28;20036;-44
2021/07/07 11:37:41;;;;;;;2.80;1.70;;;23.40;91.70;;;;;;5052780;28;20032;-43
2021/07/07 11:40:17;;;;;;;5.38;2.00;;;23.50;92.80;;;;;;5051376;28;20040;-44
2021/07/07 11:43:02;;;;;;;3.67;1.70;;;23.50;92.70;;;;;;5051558;28;20025;-43
2021/07/07 11:45:38;;;;;;;3.85;1.52;;;23.60;92.30;;;;;;5051818;28;20024;-42
2021/07/07 11:48:44;;;;;;;4.28;1.45;;;23.70;92.80;;;;;;5050703;28;20029;-41
2021/07/07 11:51:18;;;;;;;9.13;2.13;;;23.70;93.00;;;;;;5033348;28;20069;-42
2021/07/07 11:53:46;;;;;;;5.70;1.20;;;23.70;93.10;;;;;;5050898;28;20041;-40
2021/07/07 11:56:19;;;;;;;6.40;1.90;;;23.70;93.40;;;;;;5051096;28;20029;-40
2021/07/07 11:58:53;;;;;;;5.57;1.70;;;23.70;92.90;;;;;;5050793;28;20021;-41
2021/07/07 12:01:22;;;;;;;4.47;1.63;;;23.80;92.60;;;;;;5051023;28;20090;-42
2021/07/07 12:03:53;;;;;;;3.72;1.50;;;23.80;91.40;;;;;;5050724;28;20036;-43
2021/07/07 12:06:27;;;;;;;5.43;2.28;;;23.80;91.10;;;;;;5051179;28;20205;-42
2021/07/07 12:08:54;;;;;;;5.65;1.30;;;23.70;91.90;;;;;;5051070;28;20046;-39
2021/07/07 12:11:19;;;;;;;7.18;1.45;;;23.70;92.70;;;;;;5050626;28;20025;-43
2021/07/07 12:13:48;;;;;;;5.47;2.30;;;23.80;90.90;;;;;;5050638;28;20490;-40
2021/07/07 12:16:25;;;;;;;5.25;1.73;;;23.80;91.70;;;;;;5051175;28;20021;-42
2021/07/07 12:18:51;;;;;;;8.18;1.60;;;23.80;89.10;;;;;;5050925;28;20025;-42
2021/07/07 12:21:22;;;;;;;3.05;1.60;;;23.80;90.90;;;;;;5051049;28;20021;-41
2021/07/07 12:23:54;;;;;;;6.70;1.67;;;23.90;91.00;;;;;;5050704;28;20044;-41
2021/07/07 12:26:30;;;;;;;5.05;1.80;;;23.90;92.30;;;;;;5050963;28;20021;-42
2021/07/07 12:28:58;;;;;;;6.07;1.77;;;24.00;92.70;;;;;;5050837;28;20025;-42
2021/07/07 12:31:38;;;;;;;6.43;1.67;;;24.10;91.30;;;;;;5050507;28;20032;-42
2021/07/07 12:34:06;;;;;;;7.50;1.63;;;24.20;90.20;;;;;;5050184;28;20079;-45
2021/07/07 12:36:33;;;;;;;4.13;1.35;;;24.10;89.60;;;;;;5050348;28;20029;-45
2021/07/07 12:39:21;;;;;;;6.22;1.45;;;24.00;90.70;;;;;;5050750;28;20494;-45
2021/07/07 12:41:57;;;;;;;4.50;1.45;;;24.10;87.40;;;;;;5050410;28;20033;-42
2021/07/07 12:44:29;;;;;;;10.93;1.60;;;24.10;87.30;;;;;;5050280;28;20091;-44
2021/07/07 12:47:04;;;;;;;4.70;1.60;;;24.00;89.30;;;;;;5050298;28;20048;-43